N724JS FIMR-VCBI
Flight info
| Callsign | N724JS |
|---|---|
| Flight time | N/A |
| Altitude | 41000 |
| Route | ETLUM DCT ETLUM UT455 BOBOD G454 NIVAG |
| Aircraft | GLF6/M-SBDE2E3FGHIJ4J5M1RWXY/LB1D1 |
Departure
| Time | N/A |
|---|---|
| Airport | Sir Charles Gaetan Duval Airport (FIMR) |
Arrival
| Time | 2026-04-26 17:05 |
|---|---|
| Airport | Bandaranaike International Colombo Airport (VCBI) |
| Time | Latitude | Longitude | Altitude | Speed | Heading |
|---|---|---|---|---|---|
| 2026-04-26 14:19 | -7.68662 | 84.26119 | 40063 ft | 461 kts | 329° |
| 2026-04-26 14:19 | -7.65919 | 84.24438 | 40899 ft | 456 kts | 329° |
| 2026-04-26 14:19 | -7.63258 | 84.22815 | 41644 ft | 443 kts | 329° |
| 2026-04-26 14:20 | -7.60624 | 84.21213 | 41785 ft | 444 kts | 329° |
| 2026-04-26 14:20 | -7.57969 | 84.19600 | 41275 ft | 450 kts | 329° |
| 2026-04-26 14:20 | -7.55300 | 84.17969 | 40538 ft | 450 kts | 329° |
| 2026-04-26 14:20 | -7.52629 | 84.16335 | 40001 ft | 453 kts | 329° |
| 2026-04-26 14:21 | -7.49855 | 84.14630 | 39633 ft | 470 kts | 329° |
| 2026-04-26 14:21 | -7.47035 | 84.12895 | 39801 ft | 478 kts | 329° |
| 2026-04-26 14:21 | -7.44198 | 84.11139 | 40641 ft | 474 kts | 329° |
| 2026-04-26 14:21 | -7.41462 | 84.09450 | 41875 ft | 446 kts | 328° |
| 2026-04-26 14:22 | -7.38899 | 84.07878 | 42598 ft | 430 kts | 328° |
| 2026-04-26 14:22 | -7.36291 | 84.06283 | 42039 ft | 442 kts | 329° |
| 2026-04-26 14:22 | -7.33649 | 84.04658 | 40699 ft | 456 kts | 328° |
| 2026-04-26 14:22 | -7.30926 | 84.02932 | 39595 ft | 464 kts | 328° |
| 2026-04-26 14:23 | -7.28153 | 84.01156 | 39097 ft | 483 kts | 328° |
| 2026-04-26 14:23 | -7.25296 | 83.99320 | 39533 ft | 486 kts | 328° |
| 2026-04-26 14:23 | -7.22480 | 83.97503 | 40810 ft | 474 kts | 328° |
| 2026-04-26 14:23 | -7.19797 | 83.95784 | 42423 ft | 440 kts | 328° |
| 2026-04-26 14:24 | -7.17276 | 83.94187 | 43102 ft | 431 kts | 328° |
| 2026-04-26 14:24 | -7.14673 | 83.92539 | 42274 ft | 448 kts | 328° |
| 2026-04-26 14:24 | -7.12000 | 83.90839 | 40660 ft | 463 kts | 328° |
| 2026-04-26 14:24 | -7.09263 | 83.89092 | 39495 ft | 472 kts | 328° |
| 2026-04-26 14:25 | -7.06435 | 83.87316 | 39065 ft | 490 kts | 328° |
| 2026-04-26 14:25 | -7.03525 | 83.85506 | 39605 ft | 490 kts | 329° |
| 2026-04-26 14:25 | -7.00635 | 83.83751 | 40960 ft | 476 kts | 329° |
| 2026-04-26 14:25 | -6.97928 | 83.82125 | 42600 ft | 440 kts | 329° |
| 2026-04-26 14:26 | -6.95313 | 83.80562 | 43261 ft | 432 kts | 329° |
| 2026-04-26 14:26 | -6.92669 | 83.78983 | 42306 ft | 451 kts | 329° |
| 2026-04-26 14:26 | -6.89935 | 83.77356 | 40636 ft | 465 kts | 329° |
| 2026-04-26 14:26 | -6.87155 | 83.75689 | 39512 ft | 466 kts | 329° |
| 2026-04-26 14:27 | -6.84430 | 83.74043 | 39268 ft | 452 kts | 329° |
| 2026-04-26 14:27 | -6.81770 | 83.72439 | 39632 ft | 437 kts | 329° |
| 2026-04-26 14:27 | -6.79167 | 83.70877 | 39940 ft | 437 kts | 329° |
| 2026-04-26 14:27 | -6.76513 | 83.69284 | 39961 ft | 448 kts | 329° |
| 2026-04-26 14:28 | -6.73799 | 83.67662 | 39896 ft | 455 kts | 330° |
| 2026-04-26 14:28 | -6.68322 | 83.64545 | 40255 ft | 449 kts | 331° |
| 2026-04-26 14:28 | -6.65580 | 83.63026 | 40523 ft | 447 kts | 331° |
| 2026-04-26 14:29 | -6.62838 | 83.61512 | 40590 ft | 450 kts | 331° |
| 2026-04-26 14:29 | -6.60109 | 83.60007 | 40466 ft | 453 kts | 331° |
| 2026-04-26 14:29 | -6.57337 | 83.58473 | 40344 ft | 452 kts | 331° |
| 2026-04-26 14:30 | -6.51847 | 83.55425 | 40273 ft | 448 kts | 331° |
| 2026-04-26 14:30 | -6.46359 | 83.52391 | 40099 ft | 450 kts | 331° |
| 2026-04-26 14:31 | -6.40878 | 83.49359 | 40121 ft | 449 kts | 331° |
| 2026-04-26 14:31 | -6.35383 | 83.46339 | 40169 ft | 452 kts | 332° |
| 2026-04-26 14:32 | -6.29850 | 83.43319 | 40246 ft | 451 kts | 332° |
| 2026-04-26 14:32 | -6.24352 | 83.40311 | 40292 ft | 450 kts | 332° |
| 2026-04-26 14:33 | -6.18938 | 83.37351 | 40190 ft | 435 kts | 331° |
| 2026-04-26 14:33 | -6.16287 | 83.35889 | 39972 ft | 431 kts | 331° |
| 2026-04-26 14:33 | -6.13642 | 83.34436 | 39500 ft | 434 kts | 332° |
| 2026-04-26 14:33 | -6.10970 | 83.32967 | 38994 ft | 436 kts | 331° |
| 2026-04-26 14:34 | -6.08331 | 83.31505 | 38715 ft | 434 kts | 331° |
| 2026-04-26 14:34 | -6.03052 | 83.28577 | 38774 ft | 434 kts | 331° |
| 2026-04-26 14:34 | -6.00352 | 83.27085 | 38906 ft | 445 kts | 331° |
| 2026-04-26 14:35 | -5.97622 | 83.25577 | 39175 ft | 453 kts | 331° |
| 2026-04-26 14:35 | -5.94853 | 83.24048 | 39667 ft | 457 kts | 331° |
| 2026-04-26 14:35 | -5.92073 | 83.22516 | 40291 ft | 457 kts | 332° |
| 2026-04-26 14:35 | -5.89280 | 83.20977 | 40880 ft | 458 kts | 331° |
| 2026-04-26 14:36 | -5.86473 | 83.19428 | 41222 ft | 459 kts | 332° |
| 2026-04-26 14:36 | -5.80861 | 83.16341 | 41085 ft | 458 kts | 332° |
| 2026-04-26 14:36 | -5.78079 | 83.14809 | 40766 ft | 457 kts | 332° |
| 2026-04-26 14:37 | -5.75284 | 83.13262 | 40455 ft | 453 kts | 332° |
| 2026-04-26 14:37 | -5.72535 | 83.11739 | 40204 ft | 451 kts | 331° |
| 2026-04-26 14:37 | -5.69786 | 83.10220 | 39969 ft | 453 kts | 332° |
| 2026-04-26 14:37 | -5.67031 | 83.08697 | 39815 ft | 454 kts | 332° |
| 2026-04-26 14:38 | -5.64267 | 83.07162 | 39803 ft | 454 kts | 332° |
| 2026-04-26 14:38 | -5.61482 | 83.05619 | 39920 ft | 455 kts | 332° |
| 2026-04-26 14:38 | -5.58695 | 83.04069 | 40097 ft | 455 kts | 331° |
| 2026-04-26 14:38 | -5.56848 | 83.03045 | 40216 ft | 456 kts | 331° |
| 2026-04-26 14:39 | -5.53141 | 83.00985 | 40396 ft | 458 kts | 332° |
| 2026-04-26 14:39 | -5.47564 | 82.97883 | 40522 ft | 459 kts | 332° |
| 2026-04-26 14:40 | -5.41949 | 82.94763 | 40470 ft | 458 kts | 332° |
| 2026-04-26 14:40 | -5.36356 | 82.91646 | 40327 ft | 458 kts | 332° |
| 2026-04-26 14:41 | -5.30797 | 82.88535 | 40190 ft | 460 kts | 331° |
| 2026-04-26 14:41 | -5.25197 | 82.85405 | 40225 ft | 460 kts | 331° |
| 2026-04-26 14:42 | -5.19591 | 82.82263 | 40313 ft | 461 kts | 331° |
| 2026-04-26 14:42 | -5.13975 | 82.79116 | 40392 ft | 461 kts | 332° |
| 2026-04-26 14:43 | -5.08365 | 82.75975 | 40408 ft | 462 kts | 331° |
| 2026-04-26 14:43 | -5.02738 | 82.72825 | 40373 ft | 462 kts | 331° |
| 2026-04-26 14:44 | -4.97154 | 82.69690 | 40327 ft | 463 kts | 331° |
| 2026-04-26 14:44 | -4.91523 | 82.66525 | 40320 ft | 463 kts | 331° |
| 2026-04-26 14:45 | -4.85871 | 82.63343 | 40344 ft | 463 kts | 331° |
| 2026-04-26 14:45 | -4.80249 | 82.60179 | 40370 ft | 464 kts | 331° |
| 2026-04-26 14:46 | -4.74601 | 82.57079 | 40391 ft | 464 kts | 333° |
| 2026-04-26 14:46 | -4.68888 | 82.54012 | 40353 ft | 465 kts | 333° |
| 2026-04-26 14:47 | -4.63160 | 82.50916 | 40356 ft | 465 kts | 332° |
| 2026-04-26 14:47 | -4.57450 | 82.47811 | 40380 ft | 466 kts | 332° |
| 2026-04-26 14:48 | -4.51740 | 82.44714 | 40388 ft | 466 kts | 332° |
| 2026-04-26 14:48 | -4.46046 | 82.41632 | 40402 ft | 467 kts | 332° |
| 2026-04-26 14:49 | -4.40319 | 82.38519 | 40381 ft | 468 kts | 332° |
| 2026-04-26 14:49 | -4.34592 | 82.35393 | 40370 ft | 468 kts | 332° |
| 2026-04-26 14:50 | -4.28836 | 82.32263 | 40401 ft | 469 kts | 332° |
| 2026-04-26 14:50 | -4.23085 | 82.29132 | 40395 ft | 470 kts | 332° |
| 2026-04-26 14:51 | -4.17327 | 82.26007 | 40425 ft | 470 kts | 332° |
| 2026-04-26 14:51 | -4.11584 | 82.22907 | 40416 ft | 470 kts | 332° |
| 2026-04-26 14:52 | -4.05781 | 82.19784 | 40397 ft | 471 kts | 332° |
| 2026-04-26 14:52 | -3.99998 | 82.16682 | 40408 ft | 472 kts | 332° |
| 2026-04-26 14:53 | -3.94225 | 82.13584 | 40439 ft | 472 kts | 332° |
| 2026-04-26 14:53 | -3.88440 | 82.10481 | 40457 ft | 472 kts | 332° |
| 2026-04-26 14:54 | -3.82633 | 82.07365 | 40414 ft | 473 kts | 332° |
| 2026-04-26 14:54 | -3.76831 | 82.04254 | 40443 ft | 472 kts | 332° |
| 2026-04-26 14:55 | -3.71019 | 82.01135 | 40438 ft | 473 kts | 332° |
| 2026-04-26 14:55 | -3.65191 | 81.98003 | 40431 ft | 473 kts | 332° |
| 2026-04-26 14:56 | -3.59400 | 81.94884 | 40432 ft | 474 kts | 332° |
| 2026-04-26 14:56 | -3.53606 | 81.91760 | 40477 ft | 472 kts | 332° |
| 2026-04-26 14:57 | -3.47831 | 81.88599 | 40472 ft | 474 kts | 332° |
| 2026-04-26 14:57 | -3.42052 | 81.85418 | 40435 ft | 473 kts | 332° |
| 2026-04-26 14:58 | -3.36264 | 81.82240 | 40458 ft | 473 kts | 332° |
| 2026-04-26 14:58 | -3.30478 | 81.79071 | 40427 ft | 474 kts | 332° |
| 2026-04-26 14:59 | -3.24709 | 81.75913 | 40477 ft | 473 kts | 332° |
| 2026-04-26 14:59 | -3.18896 | 81.72734 | 40464 ft | 474 kts | 332° |
| 2026-04-26 15:00 | -3.13094 | 81.69540 | 40476 ft | 474 kts | 332° |
| 2026-04-26 15:00 | -3.07310 | 81.66373 | 40479 ft | 474 kts | 332° |
| 2026-04-26 15:01 | -3.01525 | 81.63191 | 40475 ft | 474 kts | 332° |
| 2026-04-26 15:01 | -2.95761 | 81.59993 | 40451 ft | 475 kts | 332° |
| 2026-04-26 15:02 | -2.89983 | 81.56766 | 40460 ft | 475 kts | 332° |
| 2026-04-26 15:02 | -2.84184 | 81.53530 | 40487 ft | 475 kts | 332° |
| 2026-04-26 15:03 | -2.78384 | 81.50291 | 40476 ft | 477 kts | 332° |
| 2026-04-26 15:03 | -2.72618 | 81.47067 | 40515 ft | 476 kts | 332° |
| 2026-04-26 15:04 | -2.66823 | 81.43827 | 40522 ft | 477 kts | 332° |
| 2026-04-26 15:04 | -2.61013 | 81.40582 | 40495 ft | 477 kts | 332° |
| 2026-04-26 15:05 | -2.55215 | 81.37341 | 40515 ft | 478 kts | 332° |
| 2026-04-26 15:05 | -2.49373 | 81.34071 | 40508 ft | 478 kts | 332° |
| 2026-04-26 15:06 | -2.43575 | 81.30830 | 40518 ft | 478 kts | 332° |
| 2026-04-26 15:06 | -2.37779 | 81.27591 | 40528 ft | 478 kts | 332° |
| 2026-04-26 15:07 | -2.29062 | 81.22716 | 40539 ft | 477 kts | 332° |
| 2026-04-26 15:07 | -2.23261 | 81.19469 | 40523 ft | 478 kts | 332° |
| 2026-04-26 15:08 | -2.17409 | 81.16190 | 40530 ft | 478 kts | 332° |
| 2026-04-26 15:08 | -2.11622 | 81.12956 | 40551 ft | 478 kts | 332° |
| 2026-04-26 15:09 | -2.05823 | 81.09715 | 40521 ft | 479 kts | 332° |
| 2026-04-26 15:09 | -2.00002 | 81.06465 | 40531 ft | 478 kts | 332° |
| 2026-04-26 15:10 | -1.95155 | 81.03760 | 40562 ft | 478 kts | 332° |
| 2026-04-26 15:10 | -1.88352 | 80.99967 | 40553 ft | 479 kts | 332° |
| 2026-04-26 15:11 | -1.82532 | 80.96720 | 40525 ft | 479 kts | 332° |
| 2026-04-26 15:11 | -1.76680 | 80.93441 | 40562 ft | 478 kts | 332° |
| 2026-04-26 15:12 | -1.70903 | 80.90196 | 40555 ft | 479 kts | 332° |
| 2026-04-26 15:12 | -1.65037 | 80.86892 | 40518 ft | 481 kts | 332° |
| 2026-04-26 15:13 | -1.59241 | 80.83624 | 40579 ft | 479 kts | 332° |
| 2026-04-26 15:13 | -1.53380 | 80.80327 | 40600 ft | 480 kts | 332° |
| 2026-04-26 15:14 | -1.47586 | 80.77067 | 40575 ft | 481 kts | 332° |
| 2026-04-26 15:14 | -1.41758 | 80.73789 | 40605 ft | 480 kts | 332° |
| 2026-04-26 15:15 | -1.35930 | 80.70509 | 40581 ft | 481 kts | 332° |
| 2026-04-26 15:15 | -1.30079 | 80.67223 | 40599 ft | 479 kts | 332° |
| 2026-04-26 15:16 | -1.24262 | 80.63953 | 40605 ft | 480 kts | 332° |
| 2026-04-26 15:16 | -1.18408 | 80.60659 | 40589 ft | 481 kts | 332° |
| 2026-04-26 15:17 | -1.13582 | 80.57941 | 40617 ft | 480 kts | 332° |
| 2026-04-26 15:17 | -1.06747 | 80.54098 | 40626 ft | 480 kts | 332° |
| 2026-04-26 15:18 | -1.00906 | 80.50811 | 40631 ft | 480 kts | 332° |
| 2026-04-26 15:18 | -0.95072 | 80.47527 | 40634 ft | 480 kts | 332° |
| 2026-04-26 15:19 | -0.89263 | 80.44263 | 40618 ft | 480 kts | 332° |
| 2026-04-26 15:19 | -0.83415 | 80.40972 | 40616 ft | 481 kts | 332° |
| 2026-04-26 15:20 | -0.77582 | 80.37689 | 40624 ft | 481 kts | 332° |
| 2026-04-26 15:20 | -0.71745 | 80.34420 | 40634 ft | 481 kts | 332° |
| 2026-04-26 15:21 | -0.65893 | 80.31147 | 40649 ft | 481 kts | 332° |
| 2026-04-26 15:21 | -0.60039 | 80.27881 | 40642 ft | 482 kts | 332° |
| 2026-04-26 15:22 | -0.54167 | 80.24598 | 40616 ft | 482 kts | 332° |
| 2026-04-26 15:22 | -0.48309 | 80.21331 | 40680 ft | 481 kts | 332° |
| 2026-04-26 15:23 | -0.42492 | 80.18086 | 40676 ft | 481 kts | 332° |
| 2026-04-26 15:23 | -0.36621 | 80.14812 | 40625 ft | 483 kts | 332° |
| 2026-04-26 15:24 | -0.30727 | 80.11533 | 40668 ft | 481 kts | 332° |
| 2026-04-26 15:24 | -0.24870 | 80.08270 | 40687 ft | 482 kts | 332° |
| 2026-04-26 15:25 | -0.19977 | 80.05536 | 40667 ft | 482 kts | 332° |
| 2026-04-26 15:25 | -0.13141 | 80.01719 | 40675 ft | 482 kts | 332° |
| 2026-04-26 15:26 | -0.07296 | 79.98467 | 40672 ft | 482 kts | 332° |
| 2026-04-26 15:26 | -0.01406 | 79.95177 | 40723 ft | 482 kts | 332° |
| 2026-04-26 15:27 | 0.04439 | 79.91900 | 40686 ft | 483 kts | 332° |
| 2026-04-26 15:27 | 0.10302 | 79.88605 | 40705 ft | 482 kts | 332° |
| 2026-04-26 15:28 | 0.16148 | 79.85325 | 40685 ft | 482 kts | 332° |
| 2026-04-26 15:28 | 0.21975 | 79.82052 | 40703 ft | 482 kts | 332° |
| 2026-04-26 15:29 | 0.27846 | 79.78754 | 40715 ft | 482 kts | 332° |
| 2026-04-26 15:30 | 0.39529 | 79.72194 | 40719 ft | 482 kts | 332° |
| 2026-04-26 15:30 | 0.45382 | 79.68916 | 40734 ft | 481 kts | 332° |
| 2026-04-26 15:31 | 0.54140 | 79.63998 | 40729 ft | 481 kts | 332° |
| 2026-04-26 15:32 | 0.61934 | 79.59625 | 40753 ft | 481 kts | 332° |
| 2026-04-26 15:32 | 0.68728 | 79.55814 | 40744 ft | 481 kts | 332° |
| 2026-04-26 15:33 | 0.74575 | 79.52541 | 40761 ft | 481 kts | 332° |
| 2026-04-26 15:33 | 0.80446 | 79.49256 | 40763 ft | 481 kts | 332° |
| 2026-04-26 15:34 | 0.86288 | 79.45996 | 40752 ft | 482 kts | 332° |
| 2026-04-26 15:34 | 0.92161 | 79.42725 | 40766 ft | 481 kts | 332° |
| 2026-04-26 15:35 | 0.98020 | 79.39459 | 40789 ft | 482 kts | 332° |
| 2026-04-26 15:35 | 1.03918 | 79.36176 | 40771 ft | 483 kts | 332° |
| 2026-04-26 15:36 | 1.08685 | 79.33529 | 40787 ft | 482 kts | 332° |
| 2026-04-26 15:36 | 1.14026 | 79.30547 | 40733 ft | 484 kts | 332° |
| 2026-04-26 15:37 | 1.19896 | 79.27265 | 40744 ft | 483 kts | 332° |
| 2026-04-26 15:37 | 1.25790 | 79.23971 | 40825 ft | 484 kts | 332° |
| 2026-04-26 15:38 | 1.31671 | 79.20683 | 40791 ft | 485 kts | 332° |
| 2026-04-26 15:38 | 1.37567 | 79.17381 | 40810 ft | 484 kts | 332° |
| 2026-04-26 15:39 | 1.43448 | 79.14084 | 40796 ft | 484 kts | 332° |
| 2026-04-26 15:39 | 1.48337 | 79.11344 | 40772 ft | 484 kts | 332° |
| 2026-04-26 15:40 | 1.55205 | 79.07510 | 40758 ft | 485 kts | 332° |
| 2026-04-26 15:40 | 1.61095 | 79.04224 | 40817 ft | 484 kts | 332° |
| 2026-04-26 15:41 | 1.66964 | 79.00938 | 40813 ft | 486 kts | 332° |
| 2026-04-26 15:41 | 1.72902 | 78.97599 | 40817 ft | 485 kts | 332° |
| 2026-04-26 15:42 | 1.78774 | 78.94292 | 40842 ft | 485 kts | 332° |
| 2026-04-26 15:42 | 1.84659 | 78.90982 | 40842 ft | 485 kts | 332° |
| 2026-04-26 15:43 | 1.90578 | 78.87664 | 40848 ft | 485 kts | 332° |
| 2026-04-26 15:44 | 1.99407 | 78.82725 | 40820 ft | 486 kts | 332° |
| 2026-04-26 15:44 | 2.08291 | 78.77757 | 40857 ft | 486 kts | 332° |
| 2026-04-26 15:45 | 2.17162 | 78.72815 | 40877 ft | 486 kts | 332° |
| 2026-04-26 15:46 | 2.26048 | 78.67879 | 40843 ft | 485 kts | 332° |
| 2026-04-26 15:46 | 2.30967 | 78.65156 | 40830 ft | 485 kts | 332° |
| 2026-04-26 15:47 | 2.40823 | 78.59715 | 40811 ft | 487 kts | 332° |
| 2026-04-26 15:48 | 2.46753 | 78.56456 | 40879 ft | 486 kts | 332° |
| 2026-04-26 15:48 | 2.52701 | 78.53190 | 40906 ft | 486 kts | 332° |
| 2026-04-26 15:49 | 2.58636 | 78.49943 | 40908 ft | 486 kts | 332° |
| 2026-04-26 15:49 | 2.64571 | 78.46698 | 40903 ft | 485 kts | 332° |
| 2026-04-26 15:50 | 2.70508 | 78.43451 | 40882 ft | 485 kts | 332° |
| 2026-04-26 15:50 | 2.76440 | 78.40207 | 40854 ft | 486 kts | 332° |
| 2026-04-26 15:51 | 2.82400 | 78.36948 | 40893 ft | 486 kts | 332° |
| 2026-04-26 15:51 | 2.88327 | 78.33719 | 40930 ft | 486 kts | 332° |
| 2026-04-26 15:52 | 2.94277 | 78.30482 | 40907 ft | 486 kts | 332° |
| 2026-04-26 15:52 | 3.00200 | 78.27263 | 40919 ft | 485 kts | 332° |
| 2026-04-26 15:53 | 3.06147 | 78.24033 | 40901 ft | 487 kts | 332° |
| 2026-04-26 15:53 | 3.12120 | 78.20782 | 40891 ft | 486 kts | 332° |
| 2026-04-26 15:54 | 3.18042 | 78.17561 | 40945 ft | 485 kts | 332° |
| 2026-04-26 15:54 | 3.24007 | 78.14328 | 40924 ft | 486 kts | 332° |
| 2026-04-26 15:55 | 3.29962 | 78.11104 | 40919 ft | 486 kts | 332° |
| 2026-04-26 15:55 | 3.35932 | 78.07881 | 40891 ft | 488 kts | 332° |
| 2026-04-26 15:56 | 3.41918 | 78.04654 | 40936 ft | 487 kts | 332° |
| 2026-04-26 15:56 | 3.47861 | 78.01445 | 40962 ft | 487 kts | 332° |
| 2026-04-26 15:57 | 3.53851 | 77.98227 | 40959 ft | 487 kts | 332° |
| 2026-04-26 15:57 | 3.59847 | 77.95019 | 40981 ft | 486 kts | 332° |
| 2026-04-26 15:58 | 3.65830 | 77.91820 | 40974 ft | 486 kts | 332° |
| 2026-04-26 15:58 | 3.71802 | 77.88630 | 40949 ft | 487 kts | 332° |
| 2026-04-26 15:59 | 3.77792 | 77.85427 | 40952 ft | 487 kts | 332° |
| 2026-04-26 15:59 | 3.83751 | 77.82247 | 40994 ft | 487 kts | 332° |
| 2026-04-26 16:00 | 3.89775 | 77.79044 | 40976 ft | 488 kts | 332° |
| 2026-04-26 16:00 | 3.95762 | 77.75874 | 41012 ft | 487 kts | 332° |
| 2026-04-26 16:01 | 4.01774 | 77.72699 | 41006 ft | 487 kts | 332° |
| 2026-04-26 16:01 | 4.07798 | 77.69518 | 40994 ft | 487 kts | 332° |
| 2026-04-26 16:02 | 4.13777 | 77.66352 | 40992 ft | 486 kts | 332° |
| 2026-04-26 16:02 | 4.19757 | 77.63187 | 40967 ft | 487 kts | 332° |
| 2026-04-26 16:03 | 4.25781 | 77.60010 | 40967 ft | 486 kts | 332° |
| 2026-04-26 16:03 | 4.31745 | 77.56867 | 41013 ft | 486 kts | 332° |
| 2026-04-26 16:04 | 4.37737 | 77.53718 | 40998 ft | 486 kts | 332° |
| 2026-04-26 16:04 | 4.43767 | 77.50549 | 41011 ft | 486 kts | 332° |
| 2026-04-26 16:05 | 4.49727 | 77.47426 | 41028 ft | 485 kts | 332° |
| 2026-04-26 16:05 | 4.55739 | 77.44291 | 40987 ft | 486 kts | 332° |
| 2026-04-26 16:06 | 4.61757 | 77.41157 | 41031 ft | 485 kts | 332° |
| 2026-04-26 16:06 | 4.67772 | 77.38035 | 41019 ft | 486 kts | 332° |
| 2026-04-26 16:07 | 4.73766 | 77.34925 | 41017 ft | 485 kts | 332° |
| 2026-04-26 16:07 | 4.79781 | 77.31804 | 41084 ft | 484 kts | 332° |
| 2026-04-26 16:08 | 4.85762 | 77.28718 | 41024 ft | 485 kts | 332° |
| 2026-04-26 16:08 | 4.91798 | 77.25617 | 41016 ft | 484 kts | 332° |
| 2026-04-26 16:09 | 4.97812 | 77.22543 | 41051 ft | 484 kts | 332° |
| 2026-04-26 16:09 | 5.03815 | 77.19462 | 41023 ft | 485 kts | 332° |
| 2026-04-26 16:10 | 5.09802 | 77.16387 | 41051 ft | 484 kts | 332° |
| 2026-04-26 16:10 | 5.15816 | 77.13309 | 41074 ft | 484 kts | 332° |
| 2026-04-26 16:11 | 5.21848 | 77.10219 | 41047 ft | 484 kts | 332° |
| 2026-04-26 16:11 | 5.27834 | 77.07164 | 41050 ft | 483 kts | 332° |
| 2026-04-26 16:12 | 5.33852 | 77.04093 | 41061 ft | 484 kts | 332° |
| 2026-04-26 16:12 | 5.42865 | 76.99498 | 41085 ft | 484 kts | 332° |
| 2026-04-26 16:13 | 5.48864 | 76.96446 | 41083 ft | 484 kts | 332° |
| 2026-04-26 16:13 | 5.54905 | 76.93375 | 41105 ft | 484 kts | 332° |
| 2026-04-26 16:14 | 5.60892 | 76.90339 | 41158 ft | 473 kts | 332° |
| 2026-04-26 16:14 | 5.67103 | 76.89034 | 40917 ft | 458 kts | 9° |
| 2026-04-26 16:15 | 5.70125 | 76.90042 | 40836 ft | 456 kts | 32° |
| 2026-04-26 16:15 | 5.72582 | 76.92047 | 40802 ft | 455 kts | 53° |
| 2026-04-26 16:15 | 5.74131 | 76.94731 | 40845 ft | 449 kts | 74° |
| 2026-04-26 16:16 | 5.74575 | 77.00871 | 40790 ft | 443 kts | 88° |
| 2026-04-26 16:16 | 5.75042 | 77.03923 | 40823 ft | 444 kts | 82° |
| 2026-04-26 16:16 | 5.76419 | 77.09934 | 40799 ft | 444 kts | 79° |
| 2026-04-26 16:17 | 5.77925 | 77.15921 | 40802 ft | 445 kts | 79° |
| 2026-04-26 16:17 | 5.79460 | 77.21950 | 40802 ft | 444 kts | 79° |
| 2026-04-26 16:18 | 5.81740 | 77.30901 | 40800 ft | 443 kts | 79° |
| 2026-04-26 16:19 | 5.84030 | 77.39894 | 40801 ft | 444 kts | 79° |
| 2026-04-26 16:20 | 5.86316 | 77.48879 | 40802 ft | 444 kts | 78° |
| 2026-04-26 16:20 | 5.88596 | 77.57845 | 40802 ft | 443 kts | 79° |
| 2026-04-26 16:21 | 5.90119 | 77.63839 | 40802 ft | 443 kts | 79° |
| 2026-04-26 16:21 | 5.91637 | 77.69813 | 40804 ft | 443 kts | 78° |
| 2026-04-26 16:22 | 5.93161 | 77.75816 | 40802 ft | 442 kts | 78° |
| 2026-04-26 16:22 | 5.94672 | 77.81773 | 40803 ft | 442 kts | 79° |
| 2026-04-26 16:23 | 5.96190 | 77.87758 | 40805 ft | 442 kts | 78° |
| 2026-04-26 16:23 | 5.97695 | 77.93695 | 40811 ft | 442 kts | 78° |
| 2026-04-26 16:24 | 5.99209 | 77.99671 | 40820 ft | 443 kts | 78° |
| 2026-04-26 16:24 | 6.00729 | 78.05671 | 40823 ft | 444 kts | 78° |
| 2026-04-26 16:25 | 6.02248 | 78.11671 | 40822 ft | 443 kts | 78° |
| 2026-04-26 16:25 | 6.03765 | 78.17666 | 40822 ft | 442 kts | 78° |
| 2026-04-26 16:26 | 6.05016 | 78.22615 | 40825 ft | 442 kts | 78° |
| 2026-04-26 16:26 | 6.06776 | 78.29575 | 40823 ft | 442 kts | 78° |
| 2026-04-26 16:27 | 6.08292 | 78.35577 | 40822 ft | 438 kts | 78° |
| 2026-04-26 16:27 | 6.09022 | 78.38460 | 40811 ft | 422 kts | 78° |
| 2026-04-26 16:27 | 6.09727 | 78.41251 | 40806 ft | 407 kts | 78° |
| 2026-04-26 16:28 | 6.10415 | 78.43976 | 40799 ft | 391 kts | 78° |
| 2026-04-26 16:28 | 6.11066 | 78.46557 | 40802 ft | 376 kts | 78° |
| 2026-04-26 16:28 | 6.11691 | 78.49034 | 40798 ft | 361 kts | 78° |
| 2026-04-26 16:28 | 6.12294 | 78.51420 | 40798 ft | 345 kts | 78° |
| 2026-04-26 16:29 | 6.12869 | 78.53701 | 40793 ft | 330 kts | 79° |
| 2026-04-26 16:29 | 6.13423 | 78.55880 | 40785 ft | 315 kts | 76° |
| 2026-04-26 16:29 | 6.14454 | 78.57733 | 40864 ft | 300 kts | 46° |
| 2026-04-26 16:29 | 6.16056 | 78.59115 | 40794 ft | 307 kts | 41° |
| 2026-04-26 16:30 | 6.19531 | 78.61880 | 40815 ft | 330 kts | 40° |
| 2026-04-26 16:30 | 6.21360 | 78.63317 | 40807 ft | 344 kts | 40° |
| 2026-04-26 16:30 | 6.23259 | 78.64801 | 40796 ft | 340 kts | 40° |
| 2026-04-26 16:31 | 6.25097 | 78.66235 | 40783 ft | 325 kts | 40° |
| 2026-04-26 16:31 | 6.26840 | 78.67594 | 40770 ft | 309 kts | 40° |
| 2026-04-26 16:31 | 6.28500 | 78.68889 | 40776 ft | 293 kts | 40° |
| 2026-04-26 16:31 | 6.30090 | 78.70130 | 40787 ft | 287 kts | 40° |
| 2026-04-26 16:32 | 6.31656 | 78.71354 | 40807 ft | 290 kts | 40° |
| 2026-04-26 16:32 | 6.32742 | 78.72201 | 40812 ft | 295 kts | 40° |
| 2026-04-26 16:32 | 6.36633 | 78.75239 | 40806 ft | 308 kts | 40° |
| 2026-04-26 16:33 | 6.40001 | 78.77868 | 40796 ft | 303 kts | 40° |
| 2026-04-26 16:33 | 6.41590 | 78.79220 | 40793 ft | 297 kts | 51° |
| 2026-04-26 16:33 | 6.42910 | 78.80838 | 40824 ft | 304 kts | 53° |
| 2026-04-26 16:34 | 6.44270 | 78.82539 | 40826 ft | 316 kts | 53° |
| 2026-04-26 16:34 | 6.45666 | 78.84279 | 40811 ft | 329 kts | 53° |
| 2026-04-26 16:34 | 6.47136 | 78.86111 | 40820 ft | 343 kts | 53° |
| 2026-04-26 16:34 | 6.48643 | 78.87986 | 40800 ft | 343 kts | 53° |
| 2026-04-26 16:35 | 6.50106 | 78.89806 | 40779 ft | 328 kts | 53° |
| 2026-04-26 16:35 | 6.51522 | 78.91567 | 40774 ft | 312 kts | 53° |
| 2026-04-26 16:35 | 6.52844 | 78.93214 | 40776 ft | 296 kts | 53° |
| 2026-04-26 16:35 | 6.54109 | 78.94788 | 40782 ft | 285 kts | 53° |
| 2026-04-26 16:36 | 6.55348 | 78.96333 | 40802 ft | 286 kts | 53° |
| 2026-04-26 16:36 | 6.56609 | 78.97907 | 40814 ft | 292 kts | 53° |
| 2026-04-26 16:36 | 6.57902 | 78.99519 | 40813 ft | 300 kts | 53° |
| 2026-04-26 16:36 | 6.59212 | 79.01151 | 40805 ft | 304 kts | 53° |
| 2026-04-26 16:37 | 6.61879 | 79.04474 | 40799 ft | 302 kts | 53° |
| 2026-04-26 16:37 | 6.64530 | 79.07837 | 40817 ft | 318 kts | 53° |
| 2026-04-26 16:38 | 6.65930 | 79.09621 | 40822 ft | 331 kts | 53° |
| 2026-04-26 16:38 | 6.67383 | 79.11475 | 40820 ft | 344 kts | 53° |
| 2026-04-26 16:38 | 6.68876 | 79.13377 | 40819 ft | 358 kts | 53° |
| 2026-04-26 16:38 | 6.70452 | 79.15386 | 40822 ft | 373 kts | 53° |
| 2026-04-26 16:39 | 6.72088 | 79.17473 | 40821 ft | 387 kts | 53° |
| 2026-04-26 16:39 | 6.73787 | 79.19638 | 40824 ft | 402 kts | 53° |
| 2026-04-26 16:39 | 6.75546 | 79.21882 | 40819 ft | 416 kts | 53° |
| 2026-04-26 16:39 | 6.77374 | 79.24214 | 40818 ft | 431 kts | 53° |
| 2026-04-26 16:40 | 6.81119 | 79.28989 | 39869 ft | 435 kts | 53° |
| 2026-04-26 16:40 | 6.82962 | 79.31342 | 38878 ft | 436 kts | 53° |
| 2026-04-26 16:40 | 6.84805 | 79.33693 | 36805 ft | 427 kts | 53° |
| 2026-04-26 16:41 | 6.86591 | 79.35972 | 35225 ft | 412 kts | 53° |
| 2026-04-26 16:41 | 6.88326 | 79.38187 | 33650 ft | 400 kts | 53° |
| 2026-04-26 16:41 | 6.90022 | 79.40351 | 32133 ft | 388 kts | 53° |
| 2026-04-26 16:41 | 6.91645 | 79.42427 | 30740 ft | 378 kts | 53° |
| 2026-04-26 16:42 | 6.93222 | 79.44440 | 29363 ft | 368 kts | 53° |
| 2026-04-26 16:42 | 6.94445 | 79.46658 | 28304 ft | 368 kts | 75° |
| 2026-04-26 16:42 | 6.94611 | 79.49226 | 27425 ft | 375 kts | 99° |
| 2026-04-26 16:42 | 6.93669 | 79.51651 | 26577 ft | 383 kts | 123° |
| 2026-04-26 16:43 | 6.91758 | 79.53524 | 25745 ft | 391 kts | 147° |
| 2026-04-26 16:43 | 6.89176 | 79.54485 | 24920 ft | 399 kts | 170° |
| 2026-04-26 16:43 | 6.86416 | 79.54334 | 24124 ft | 404 kts | 193° |
| 2026-04-26 16:43 | 6.83913 | 79.53111 | 23353 ft | 409 kts | 217° |
| 2026-04-26 16:44 | 6.81928 | 79.51054 | 22614 ft | 409 kts | 229° |
| 2026-04-26 16:44 | 6.80105 | 79.48874 | 21931 ft | 408 kts | 229° |
| 2026-04-26 16:44 | 6.78281 | 79.46687 | 21254 ft | 407 kts | 229° |
| 2026-04-26 16:44 | 6.76463 | 79.44518 | 20587 ft | 405 kts | 229° |
| 2026-04-26 16:45 | 6.74653 | 79.42353 | 19921 ft | 403 kts | 230° |
| 2026-04-26 16:45 | 6.72890 | 79.40183 | 19254 ft | 401 kts | 234° |
| 2026-04-26 16:45 | 6.71784 | 79.37644 | 18539 ft | 399 kts | 259° |
| 2026-04-26 16:45 | 6.71776 | 79.34898 | 17836 ft | 394 kts | 283° |
| 2026-04-26 16:46 | 6.72855 | 79.32415 | 17144 ft | 387 kts | 307° |
| 2026-04-26 16:46 | 6.74809 | 79.30623 | 16459 ft | 380 kts | 332° |
| 2026-04-26 16:46 | 6.77278 | 79.29818 | 15778 ft | 373 kts | 356° |
| 2026-04-26 16:46 | 6.79810 | 79.30122 | 15108 ft | 367 kts | 20° |
| 2026-04-26 16:47 | 6.81952 | 79.31419 | 14456 ft | 362 kts | 40° |
| 2026-04-26 16:47 | 6.83787 | 79.33147 | 13849 ft | 359 kts | 46° |
| 2026-04-26 16:47 | 6.85468 | 79.34986 | 13246 ft | 355 kts | 49° |
| 2026-04-26 16:47 | 6.87054 | 79.36850 | 12650 ft | 352 kts | 50° |
| 2026-04-26 16:48 | 6.88609 | 79.38738 | 12059 ft | 349 kts | 51° |
| 2026-04-26 16:48 | 6.90152 | 79.40640 | 11458 ft | 346 kts | 51° |
| 2026-04-26 16:48 | 6.91645 | 79.42491 | 10874 ft | 344 kts | 51° |
| 2026-04-26 16:48 | 6.93148 | 79.44363 | 10290 ft | 341 kts | 51° |
| 2026-04-26 16:49 | 6.94731 | 79.46108 | 9685 ft | 339 kts | 39° |
| 2026-04-26 16:49 | 6.96651 | 79.47495 | 9098 ft | 336 kts | 37° |
| 2026-04-26 16:49 | 6.98523 | 79.48892 | 8525 ft | 334 kts | 38° |
| 2026-04-26 16:49 | 7.00360 | 79.50306 | 7961 ft | 331 kts | 38° |
| 2026-04-26 16:50 | 7.02157 | 79.51710 | 7407 ft | 328 kts | 38° |
| 2026-04-26 16:50 | 7.03971 | 79.53136 | 6841 ft | 326 kts | 39° |
| 2026-04-26 16:50 | 7.05746 | 79.54536 | 6285 ft | 323 kts | 39° |
| 2026-04-26 16:50 | 7.07496 | 79.55919 | 5733 ft | 321 kts | 39° |
| 2026-04-26 16:51 | 7.09249 | 79.57304 | 5183 ft | 318 kts | 39° |
| 2026-04-26 16:51 | 7.10890 | 79.58602 | 4218 ft | 288 kts | 38° |
| 2026-04-26 16:51 | 7.12396 | 79.59795 | 3273 ft | 265 kts | 38° |
| 2026-04-26 16:51 | 7.13787 | 79.60895 | 2360 ft | 253 kts | 38° |
| 2026-04-26 16:52 | 7.15139 | 79.61967 | 1614 ft | 243 kts | 38° |
| 2026-04-26 16:52 | 7.15902 | 79.62574 | 2679 ft | 204 kts | 38° |
| 2026-04-26 16:52 | 7.17488 | 79.63824 | 2772 ft | 274 kts | 38° |
| 2026-04-26 16:52 | 7.19078 | 79.65086 | 1838 ft | 288 kts | 38° |
| 2026-04-26 16:53 | 7.20488 | 79.66197 | 2675 ft | 240 kts | 38° |
| 2026-04-26 16:53 | 7.21815 | 79.67237 | 2423 ft | 247 kts | 38° |
| 2026-04-26 16:53 | 7.23321 | 79.68428 | 1861 ft | 301 kts | 38° |
| 2026-04-26 16:53 | 7.25026 | 79.69781 | 1983 ft | 306 kts | 38° |
| 2026-04-26 16:54 | 7.26512 | 79.70966 | 2921 ft | 250 kts | 38° |
| 2026-04-26 16:54 | 7.27879 | 79.72044 | 2942 ft | 245 kts | 38° |
| 2026-04-26 16:54 | 7.29214 | 79.73096 | 2689 ft | 251 kts | 38° |
| 2026-04-26 16:54 | 7.30597 | 79.74199 | 2328 ft | 251 kts | 38° |
| 2026-04-26 16:55 | 7.31903 | 79.75249 | 2741 ft | 231 kts | 38° |
| 2026-04-26 16:55 | 7.33088 | 79.76176 | 4160 ft | 211 kts | 38° |
| 2026-04-26 16:55 | 7.34145 | 79.76972 | 5178 ft | 204 kts | 38° |
| 2026-04-26 16:55 | 7.35461 | 79.77970 | 4557 ft | 248 kts | 38° |
| 2026-04-26 16:56 | 7.38162 | 79.80042 | 4201 ft | 244 kts | 38° |
| 2026-04-26 16:56 | 7.39498 | 79.81068 | 3942 ft | 241 kts | 38° |
| 2026-04-26 16:56 | 7.40848 | 79.82113 | 3840 ft | 242 kts | 38° |
| 2026-04-26 16:57 | 7.42170 | 79.83137 | 4052 ft | 233 kts | 38° |
| 2026-04-26 16:57 | 7.43301 | 79.84216 | 3677 ft | 234 kts | 50° |
| 2026-04-26 16:57 | 7.43299 | 79.87079 | 2209 ft | 184 kts | 107° |
| 2026-04-26 16:58 | 7.42872 | 79.88282 | 1693 ft | 173 kts | 124° |
| 2026-04-26 16:58 | 7.42361 | 79.88779 | 2106 ft | 148 kts | 143° |
| 2026-04-26 16:58 | 7.40242 | 79.90462 | 2472 ft | 179 kts | 141° |
| 2026-04-26 16:59 | 7.39267 | 79.91231 | 2463 ft | 176 kts | 141° |
| 2026-04-26 16:59 | 7.37339 | 79.92741 | 2463 ft | 173 kts | 141° |
| 2026-04-26 17:00 | 7.35428 | 79.94231 | 2464 ft | 173 kts | 141° |
| 2026-04-26 17:00 | 7.33514 | 79.95719 | 2470 ft | 173 kts | 142° |
| 2026-04-26 17:00 | 7.32556 | 79.96465 | 2465 ft | 174 kts | 141° |
| 2026-04-26 17:01 | 7.31589 | 79.97211 | 2463 ft | 175 kts | 144° |
| 2026-04-26 17:01 | 7.30461 | 79.97616 | 2427 ft | 174 kts | 179° |
| 2026-04-26 17:01 | 7.29354 | 79.97205 | 2373 ft | 174 kts | 220° |
| 2026-04-26 17:01 | 7.28467 | 79.96378 | 2176 ft | 173 kts | 223° |
| 2026-04-26 17:02 | 7.27540 | 79.95590 | 1964 ft | 170 kts | 220° |
| 2026-04-26 17:02 | 7.26615 | 79.94855 | 1758 ft | 170 kts | 219° |
| 2026-04-26 17:02 | 7.25672 | 79.94125 | 1540 ft | 168 kts | 218° |
| 2026-04-26 17:02 | 7.24809 | 79.93465 | 1339 ft | 145 kts | 219° |
| 2026-04-26 17:03 | 7.24029 | 79.92872 | 1033 ft | 136 kts | 219° |
| 2026-04-26 17:03 | 7.23281 | 79.92311 | 818 ft | 132 kts | 218° |
| 2026-04-26 17:03 | 7.22538 | 79.91760 | 774 ft | 132 kts | 218° |
| 2026-04-26 17:03 | 7.21786 | 79.91200 | 744 ft | 134 kts | 218° |
| 2026-04-26 17:04 | 7.21040 | 79.90631 | 664 ft | 136 kts | 219° |
| 2026-04-26 17:04 | 7.20293 | 79.90049 | 479 ft | 133 kts | 219° |
| 2026-04-26 17:04 | 7.19573 | 79.89486 | 191 ft | 129 kts | 219° |
| 2026-04-26 17:04 | 7.18872 | 79.88950 | 46 ft | 116 kts | 218° |
| 2026-04-26 17:05 | 7.18518 | 79.88673 | 45 ft | 26 kts | 219° |
| 2026-04-26 17:05 | 7.18375 | 79.88567 | 44 ft | 26 kts | 212° |
| 2026-04-26 17:05 | 7.18231 | 79.88475 | 44 ft | 12 kts | 213° |
| 2026-04-26 17:05 | 7.18145 | 79.88416 | 44 ft | 21 kts | 216° |
| 2026-04-26 17:06 | 7.17982 | 79.88294 | 43 ft | 35 kts | 218° |
| 2026-04-26 17:06 | 7.17859 | 79.88254 | 43 ft | 10 kts | 136° |
| 2026-04-26 17:06 | 7.17812 | 79.88301 | 44 ft | 9 kts | 136° |
| 2026-04-26 17:06 | 7.17750 | 79.88315 | 44 ft | 11 kts | 195° |
| 2026-04-26 17:07 | 7.17685 | 79.88274 | 43 ft | 11 kts | 220° |
| 2026-04-26 17:07 | 7.17613 | 79.88269 | 43 ft | 13 kts | 169° |
| 2026-04-26 17:07 | 7.17538 | 79.88245 | 43 ft | 11 kts | 223° |
| 2026-04-26 17:07 | 7.17479 | 79.88191 | 42 ft | 11 kts | 218° |
| 2026-04-26 17:08 | 7.17402 | 79.88159 | 41 ft | 12 kts | 188° |
| 2026-04-26 17:08 | 7.17321 | 79.88155 | 41 ft | 10 kts | 182° |
| 2026-04-26 17:08 | 7.17257 | 79.88156 | 43 ft | 7 kts | 195° |
| 2026-04-26 17:08 | 7.17240 | 79.88146 | 43 ft | 0 kts | 214° |